sensor_id;sensor_type;location;lat;lon;timestamp;P1;durP1;ratioP1;P2;durP2;ratioP2
18716;SDS011;9487;50.892;6.906;2023-03-14T00:02:17;4.03;;;1.50;;
18716;SDS011;9487;50.892;6.906;2023-03-14T00:04:44;5.90;;;1.90;;
18716;SDS011;9487;50.892;6.906;2023-03-14T00:07:11;3.13;;;1.50;;
18716;SDS011;9487;50.892;6.906;2023-03-14T00:09:38;4.80;;;1.70;;
18716;SDS011;9487;50.892;6.906;2023-03-14T00:12:05;7.23;;;1.87;;
18716;SDS011;9487;50.892;6.906;2023-03-14T00:14:34;3.67;;;1.80;;
18716;SDS011;9487;50.892;6.906;2023-03-14T00:17:01;3.37;;;1.53;;
18716;SDS011;9487;50.892;6.906;2023-03-14T00:19:28;7.23;;;1.83;;
18716;SDS011;9487;50.892;6.906;2023-03-14T00:21:54;4.77;;;1.60;;
18716;SDS011;9487;50.892;6.906;2023-03-14T00:24:21;3.70;;;1.60;;
18716;SDS011;9487;50.892;6.906;2023-03-14T00:26:48;3.83;;;1.53;;
18716;SDS011;9487;50.892;6.906;2023-03-14T00:29:15;5.30;;;1.60;;
18716;SDS011;9487;50.892;6.906;2023-03-14T00:31:43;5.40;;;2.00;;
18716;SDS011;9487;50.892;6.906;2023-03-14T00:34:10;3.47;;;1.47;;
18716;SDS011;9487;50.892;6.906;2023-03-14T00:36:37;4.53;;;1.80;;
18716;SDS011;9487;50.892;6.906;2023-03-14T00:39:04;5.93;;;1.80;;
18716;SDS011;9487;50.892;6.906;2023-03-14T00:41:31;5.27;;;1.53;;
18716;SDS011;9487;50.892;6.906;2023-03-14T00:43:58;6.60;;;1.50;;
18716;SDS011;9487;50.892;6.906;2023-03-14T00:46:25;3.80;;;1.63;;
18716;SDS011;9487;50.892;6.906;2023-03-14T00:48:53;5.43;;;1.63;;
18716;SDS011;9487;50.892;6.906;2023-03-14T00:51:20;2.53;;;1.27;;
18716;SDS011;9487;50.892;6.906;2023-03-14T00:53:47;3.00;;;1.30;;
18716;SDS011;9487;50.892;6.906;2023-03-14T00:56:14;3.63;;;1.27;;
18716;SDS011;9487;50.892;6.906;2023-03-14T00:58:41;4.27;;;1.50;;
18716;SDS011;9487;50.892;6.906;2023-03-14T01:01:09;4.37;;;1.30;;
18716;SDS011;9487;50.892;6.906;2023-03-14T01:03:38;4.50;;;1.23;;
18716;SDS011;9487;50.892;6.906;2023-03-14T01:06:11;5.17;;;1.43;;
18716;SDS011;9487;50.892;6.906;2023-03-14T01:08:40;3.60;;;1.70;;
18716;SDS011;9487;50.892;6.906;2023-03-14T01:11:07;5.03;;;1.37;;
18716;SDS011;9487;50.892;6.906;2023-03-14T01:13:35;3.97;;;1.50;;
18716;SDS011;9487;50.892;6.906;2023-03-14T01:16:03;4.67;;;1.47;;
18716;SDS011;9487;50.892;6.906;2023-03-14T01:18:32;3.17;;;1.50;;
18716;SDS011;9487;50.892;6.906;2023-03-14T01:21:00;4.77;;;1.50;;
18716;SDS011;9487;50.892;6.906;2023-03-14T01:23:28;9.93;;;2.17;;
18716;SDS011;9487;50.892;6.906;2023-03-14T01:25:55;4.20;;;1.50;;
18716;SDS011;9487;50.892;6.906;2023-03-14T01:28:22;5.37;;;1.03;;
18716;SDS011;9487;50.892;6.906;2023-03-14T01:30:49;5.17;;;1.60;;
18716;SDS011;9487;50.892;6.906;2023-03-14T01:33:16;4.33;;;1.87;;
18716;SDS011;9487;50.892;6.906;2023-03-14T01:35:43;4.63;;;1.70;;
18716;SDS011;9487;50.892;6.906;2023-03-14T01:38:10;5.23;;;1.90;;
18716;SDS011;9487;50.892;6.906;2023-03-14T01:40:42;5.57;;;2.07;;
18716;SDS011;9487;50.892;6.906;2023-03-14T01:43:14;5.83;;;1.90;;
18716;SDS011;9487;50.892;6.906;2023-03-14T01:48:47;1.50;;;0.80;;
18716;SDS011;9487;50.892;6.906;2023-03-14T01:51:19;4.50;;;1.13;;
18716;SDS011;9487;50.892;6.906;2023-03-14T01:53:50;2.93;;;1.00;;
18716;SDS011;9487;50.892;6.906;2023-03-14T01:56:21;3.00;;;1.00;;
18716;SDS011;9487;50.892;6.906;2023-03-14T01:58:50;4.13;;;1.10;;
18716;SDS011;9487;50.892;6.906;2023-03-14T02:01:18;4.90;;;1.03;;
18716;SDS011;9487;50.892;6.906;2023-03-14T02:03:50;3.07;;;0.97;;
18716;SDS011;9487;50.892;6.906;2023-03-14T02:06:21;2.70;;;0.90;;
18716;SDS011;9487;50.892;6.906;2023-03-14T02:08:52;2.63;;;0.97;;
18716;SDS011;9487;50.892;6.906;2023-03-14T02:11:20;2.23;;;0.97;;
18716;SDS011;9487;50.892;6.906;2023-03-14T02:13:52;1.90;;;0.70;;
18716;SDS011;9487;50.892;6.906;2023-03-14T02:16:19;2.53;;;0.93;;
18716;SDS011;9487;50.892;6.906;2023-03-14T02:18:46;1.53;;;0.70;;
18716;SDS011;9487;50.892;6.906;2023-03-14T02:21:14;3.10;;;1.20;;
18716;SDS011;9487;50.892;6.906;2023-03-14T02:23:48;2.07;;;0.80;;
18716;SDS011;9487;50.892;6.906;2023-03-14T02:26:25;1.93;;;0.60;;
18716;SDS011;9487;50.892;6.906;2023-03-14T02:28:59;2.53;;;1.10;;
18716;SDS011;9487;50.892;6.906;2023-03-14T02:31:26;3.47;;;0.93;;
18716;SDS011;9487;50.892;6.906;2023-03-14T02:33:53;2.53;;;0.80;;
18716;SDS011;9487;50.892;6.906;2023-03-14T02:36:22;2.73;;;1.00;;
18716;SDS011;9487;50.892;6.906;2023-03-14T02:38:50;1.70;;;0.90;;
18716;SDS011;9487;50.892;6.906;2023-03-14T02:41:21;3.03;;;0.97;;
18716;SDS011;9487;50.892;6.906;2023-03-14T02:43:48;1.50;;;0.80;;
18716;SDS011;9487;50.892;6.906;2023-03-14T02:46:18;3.77;;;1.00;;
18716;SDS011;9487;50.892;6.906;2023-03-14T02:48:47;5.03;;;1.43;;
18716;SDS011;9487;50.892;6.906;2023-03-14T02:51:17;1.43;;;0.83;;
18716;SDS011;9487;50.892;6.906;2023-03-14T02:53:45;3.13;;;1.13;;
18716;SDS011;9487;50.892;6.906;2023-03-14T02:56:11;3.10;;;1.23;;
18716;SDS011;9487;50.892;6.906;2023-03-14T02:58:38;3.90;;;1.10;;
18716;SDS011;9487;50.892;6.906;2023-03-14T03:01:05;4.40;;;1.60;;
18716;SDS011;9487;50.892;6.906;2023-03-14T03:03:34;3.83;;;1.40;;
18716;SDS011;9487;50.892;6.906;2023-03-14T03:06:01;5.33;;;1.57;;
18716;SDS011;9487;50.892;6.906;2023-03-14T03:08:28;3.23;;;1.33;;
18716;SDS011;9487;50.892;6.906;2023-03-14T03:10:56;2.77;;;1.30;;
18716;SDS011;9487;50.892;6.906;2023-03-14T03:13:24;4.70;;;1.77;;
18716;SDS011;9487;50.892;6.906;2023-03-14T03:15:51;4.37;;;1.53;;
18716;SDS011;9487;50.892;6.906;2023-03-14T03:18:19;3.90;;;1.60;;
18716;SDS011;9487;50.892;6.906;2023-03-14T03:20:47;5.47;;;2.00;;
18716;SDS011;9487;50.892;6.906;2023-03-14T03:23:14;4.07;;;1.80;;
18716;SDS011;9487;50.892;6.906;2023-03-14T03:25:41;6.37;;;1.93;;
18716;SDS011;9487;50.892;6.906;2023-03-14T03:28:08;5.60;;;1.70;;
18716;SDS011;9487;50.892;6.906;2023-03-14T03:30:38;4.97;;;1.80;;
18716;SDS011;9487;50.892;6.906;2023-03-14T03:33:05;4.90;;;1.90;;
18716;SDS011;9487;50.892;6.906;2023-03-14T03:35:33;5.77;;;2.03;;
18716;SDS011;9487;50.892;6.906;2023-03-14T03:38:01;5.70;;;1.77;;
18716;SDS011;9487;50.892;6.906;2023-03-14T03:40:28;5.43;;;1.50;;
18716;SDS011;9487;50.892;6.906;2023-03-14T03:42:55;7.57;;;1.60;;
18716;SDS011;9487;50.892;6.906;2023-03-14T03:45:22;6.97;;;2.40;;
18716;SDS011;9487;50.892;6.906;2023-03-14T03:47:49;4.53;;;1.50;;
18716;SDS011;9487;50.892;6.906;2023-03-14T03:50:16;5.50;;;1.97;;
18716;SDS011;9487;50.892;6.906;2023-03-14T03:52:43;4.60;;;1.60;;
18716;SDS011;9487;50.892;6.906;2023-03-14T03:55:11;3.70;;;1.60;;
18716;SDS011;9487;50.892;6.906;2023-03-14T03:57:38;5.20;;;1.53;;
18716;SDS011;9487;50.892;6.906;2023-03-14T04:00:05;5.50;;;1.50;;
18716;SDS011;9487;50.892;6.906;2023-03-14T04:02:34;3.63;;;1.40;;
18716;SDS011;9487;50.892;6.906;2023-03-14T04:05:01;3.70;;;0.90;;
18716;SDS011;9487;50.892;6.906;2023-03-14T04:07:28;3.73;;;1.47;;
18716;SDS011;9487;50.892;6.906;2023-03-14T04:09:57;6.17;;;1.63;;
18716;SDS011;9487;50.892;6.906;2023-03-14T04:12:25;3.17;;;1.30;;
18716;SDS011;9487;50.892;6.906;2023-03-14T04:14:52;5.60;;;1.63;;
18716;SDS011;9487;50.892;6.906;2023-03-14T04:17:19;3.53;;;1.17;;
18716;SDS011;9487;50.892;6.906;2023-03-14T04:19:45;3.33;;;1.03;;
18716;SDS011;9487;50.892;6.906;2023-03-14T04:22:14;2.17;;;1.10;;
18716;SDS011;9487;50.892;6.906;2023-03-14T04:24:41;3.53;;;1.30;;
18716;SDS011;9487;50.892;6.906;2023-03-14T04:27:08;4.23;;;1.33;;
18716;SDS011;9487;50.892;6.906;2023-03-14T04:29:36;5.13;;;1.40;;
18716;SDS011;9487;50.892;6.906;2023-03-14T04:32:03;1.93;;;0.97;;
18716;SDS011;9487;50.892;6.906;2023-03-14T04:34:30;2.73;;;1.17;;
18716;SDS011;9487;50.892;6.906;2023-03-14T04:36:57;4.17;;;1.10;;
18716;SDS011;9487;50.892;6.906;2023-03-14T04:39:24;3.77;;;1.17;;
18716;SDS011;9487;50.892;6.906;2023-03-14T04:41:51;2.47;;;1.10;;
18716;SDS011;9487;50.892;6.906;2023-03-14T04:44:18;3.67;;;1.20;;
18716;SDS011;9487;50.892;6.906;2023-03-14T04:46:46;3.30;;;1.03;;
18716;SDS011;9487;50.892;6.906;2023-03-14T04:49:13;1.97;;;0.90;;
18716;SDS011;9487;50.892;6.906;2023-03-14T04:51:40;2.23;;;0.93;;
18716;SDS011;9487;50.892;6.906;2023-03-14T04:54:07;3.70;;;1.33;;
18716;SDS011;9487;50.892;6.906;2023-03-14T04:56:34;2.27;;;1.10;;
18716;SDS011;9487;50.892;6.906;2023-03-14T04:59:02;2.67;;;1.00;;
18716;SDS011;9487;50.892;6.906;2023-03-14T05:01:28;2.70;;;0.90;;
18716;SDS011;9487;50.892;6.906;2023-03-14T05:03:57;3.40;;;1.00;;
18716;SDS011;9487;50.892;6.906;2023-03-14T05:06:24;3.93;;;1.10;;
18716;SDS011;9487;50.892;6.906;2023-03-14T05:08:50;3.37;;;1.20;;
18716;SDS011;9487;50.892;6.906;2023-03-14T05:11:17;1.80;;;0.90;;
18716;SDS011;9487;50.892;6.906;2023-03-14T05:13:44;2.27;;;0.80;;
18716;SDS011;9487;50.892;6.906;2023-03-14T05:16:11;2.93;;;0.80;;
18716;SDS011;9487;50.892;6.906;2023-03-14T05:18:38;0.80;;;0.50;;
18716;SDS011;9487;50.892;6.906;2023-03-14T05:21:06;1.53;;;0.60;;
18716;SDS011;9487;50.892;6.906;2023-03-14T05:23:33;3.80;;;0.60;;
18716;SDS011;9487;50.892;6.906;2023-03-14T05:26:00;1.40;;;0.50;;
18716;SDS011;9487;50.892;6.906;2023-03-14T05:28:27;0.60;;;0.40;;
18716;SDS011;9487;50.892;6.906;2023-03-14T05:30:54;1.43;;;0.60;;
18716;SDS011;9487;50.892;6.906;2023-03-14T05:33:21;0.83;;;0.63;;
18716;SDS011;9487;50.892;6.906;2023-03-14T05:35:48;2.73;;;0.80;;
18716;SDS011;9487;50.892;6.906;2023-03-14T05:38:16;0.93;;;0.50;;
18716;SDS011;9487;50.892;6.906;2023-03-14T05:40:44;1.47;;;0.40;;
18716;SDS011;9487;50.892;6.906;2023-03-14T05:43:11;1.40;;;0.90;;
18716;SDS011;9487;50.892;6.906;2023-03-14T05:45:40;0.50;;;0.40;;
18716;SDS011;9487;50.892;6.906;2023-03-14T05:48:07;0.93;;;0.60;;
18716;SDS011;9487;50.892;6.906;2023-03-14T05:50:34;0.80;;;0.40;;
18716;SDS011;9487;50.892;6.906;2023-03-14T05:53:00;0.43;;;0.43;;
18716;SDS011;9487;50.892;6.906;2023-03-14T05:55:29;0.60;;;0.40;;
18716;SDS011;9487;50.892;6.906;2023-03-14T05:57:55;2.20;;;0.70;;
18716;SDS011;9487;50.892;6.906;2023-03-14T06:00:22;1.20;;;0.80;;
18716;SDS011;9487;50.892;6.906;2023-03-14T06:02:49;1.43;;;0.80;;
18716;SDS011;9487;50.892;6.906;2023-03-14T06:05:16;0.90;;;0.60;;
18716;SDS011;9487;50.892;6.906;2023-03-14T06:07:43;0.43;;;0.40;;
18716;SDS011;9487;50.892;6.906;2023-03-14T06:10:10;0.50;;;0.30;;
18716;SDS011;9487;50.892;6.906;2023-03-14T06:12:38;1.60;;;0.77;;
18716;SDS011;9487;50.892;6.906;2023-03-14T06:15:06;1.07;;;0.63;;
18716;SDS011;9487;50.892;6.906;2023-03-14T06:17:33;0.80;;;0.57;;
18716;SDS011;9487;50.892;6.906;2023-03-14T06:20:00;1.40;;;0.63;;
18716;SDS011;9487;50.892;6.906;2023-03-14T06:22:27;2.37;;;1.20;;
18716;SDS011;9487;50.892;6.906;2023-03-14T06:24:54;1.50;;;0.70;;
18716;SDS011;9487;50.892;6.906;2023-03-14T06:27:21;0.97;;;0.50;;
18716;SDS011;9487;50.892;6.906;2023-03-14T06:29:49;1.07;;;0.70;;
18716;SDS011;9487;50.892;6.906;2023-03-14T06:32:16;0.50;;;0.43;;
18716;SDS011;9487;50.892;6.906;2023-03-14T06:34:43;0.97;;;0.50;;
18716;SDS011;9487;50.892;6.906;2023-03-14T06:37:10;0.43;;;0.40;;
18716;SDS011;9487;50.892;6.906;2023-03-14T06:39:37;1.40;;;0.80;;
18716;SDS011;9487;50.892;6.906;2023-03-14T06:42:04;0.70;;;0.50;;
18716;SDS011;9487;50.892;6.906;2023-03-14T06:44:31;1.10;;;0.60;;
18716;SDS011;9487;50.892;6.906;2023-03-14T06:46:59;1.27;;;0.57;;
18716;SDS011;9487;50.892;6.906;2023-03-14T06:49:26;1.83;;;0.50;;
18716;SDS011;9487;50.892;6.906;2023-03-14T06:51:53;0.90;;;0.40;;
18716;SDS011;9487;50.892;6.906;2023-03-14T06:54:20;0.50;;;0.50;;
18716;SDS011;9487;50.892;6.906;2023-03-14T06:56:47;0.93;;;0.50;;
18716;SDS011;9487;50.892;6.906;2023-03-14T06:59:14;0.63;;;0.50;;
18716;SDS011;9487;50.892;6.906;2023-03-14T07:01:40;1.10;;;0.33;;
18716;SDS011;9487;50.892;6.906;2023-03-14T07:04:09;0.50;;;0.50;;
18716;SDS011;9487;50.892;6.906;2023-03-14T07:06:36;0.60;;;0.40;;
18716;SDS011;9487;50.892;6.906;2023-03-14T07:09:04;0.50;;;0.40;;
18716;SDS011;9487;50.892;6.906;2023-03-14T07:11:31;0.40;;;0.40;;
18716;SDS011;9487;50.892;6.906;2023-03-14T07:13:58;0.90;;;0.60;;
18716;SDS011;9487;50.892;6.906;2023-03-14T07:16:25;1.10;;;0.60;;
18716;SDS011;9487;50.892;6.906;2023-03-14T07:18:54;0.60;;;0.50;;
18716;SDS011;9487;50.892;6.906;2023-03-14T07:21:22;1.37;;;0.60;;
18716;SDS011;9487;50.892;6.906;2023-03-14T07:23:49;0.73;;;0.50;;
18716;SDS011;9487;50.892;6.906;2023-03-14T07:26:16;1.03;;;0.60;;
18716;SDS011;9487;50.892;6.906;2023-03-14T07:28:42;0.93;;;0.73;;
18716;SDS011;9487;50.892;6.906;2023-03-14T07:31:09;0.83;;;0.60;;
18716;SDS011;9487;50.892;6.906;2023-03-14T07:33:36;0.70;;;0.50;;
18716;SDS011;9487;50.892;6.906;2023-03-14T07:36:04;0.53;;;0.50;;
18716;SDS011;9487;50.892;6.906;2023-03-14T07:38:32;0.73;;;0.50;;
18716;SDS011;9487;50.892;6.906;2023-03-14T07:40:59;0.70;;;0.40;;
18716;SDS011;9487;50.892;6.906;2023-03-14T07:43:26;0.97;;;0.70;;
18716;SDS011;9487;50.892;6.906;2023-03-14T07:45:53;0.60;;;0.60;;
18716;SDS011;9487;50.892;6.906;2023-03-14T07:48:20;1.77;;;0.67;;
18716;SDS011;9487;50.892;6.906;2023-03-14T07:50:50;0.50;;;0.40;;
18716;SDS011;9487;50.892;6.906;2023-03-14T07:53:17;0.67;;;0.53;;
18716;SDS011;9487;50.892;6.906;2023-03-14T07:55:46;0.83;;;0.53;;
18716;SDS011;9487;50.892;6.906;2023-03-14T07:58:13;0.50;;;0.50;;
18716;SDS011;9487;50.892;6.906;2023-03-14T08:00:40;0.63;;;0.50;;
18716;SDS011;9487;50.892;6.906;2023-03-14T08:03:06;1.17;;;0.40;;
18716;SDS011;9487;50.892;6.906;2023-03-14T08:05:34;0.40;;;0.40;;
18716;SDS011;9487;50.892;6.906;2023-03-14T08:08:01;0.50;;;0.40;;
18716;SDS011;9487;50.892;6.906;2023-03-14T08:10:28;0.80;;;0.60;;
18716;SDS011;9487;50.892;6.906;2023-03-14T08:12:58;1.93;;;0.70;;
18716;SDS011;9487;50.892;6.906;2023-03-14T08:15:26;1.03;;;0.87;;
18716;SDS011;9487;50.892;6.906;2023-03-14T08:17:55;1.73;;;0.73;;
18716;SDS011;9487;50.892;6.906;2023-03-14T08:20:22;1.27;;;0.67;;
18716;SDS011;9487;50.892;6.906;2023-03-14T08:22:50;2.77;;;1.30;;
18716;SDS011;9487;50.892;6.906;2023-03-14T08:25:17;1.63;;;0.90;;
18716;SDS011;9487;50.892;6.906;2023-03-14T08:27:45;1.80;;;1.00;;
18716;SDS011;9487;50.892;6.906;2023-03-14T08:30:14;2.23;;;0.90;;
18716;SDS011;9487;50.892;6.906;2023-03-14T08:32:43;2.13;;;1.20;;
18716;SDS011;9487;50.892;6.906;2023-03-14T08:35:10;1.20;;;0.80;;
18716;SDS011;9487;50.892;6.906;2023-03-14T08:37:37;1.37;;;1.23;;
18716;SDS011;9487;50.892;6.906;2023-03-14T08:40:04;0.90;;;0.67;;
18716;SDS011;9487;50.892;6.906;2023-03-14T08:42:35;0.70;;;0.60;;
18716;SDS011;9487;50.892;6.906;2023-03-14T08:45:02;1.40;;;1.00;;
18716;SDS011;9487;50.892;6.906;2023-03-14T08:47:31;0.97;;;0.70;;
18716;SDS011;9487;50.892;6.906;2023-03-14T08:49:58;1.03;;;0.63;;
18716;SDS011;9487;50.892;6.906;2023-03-14T08:52:25;1.93;;;0.80;;
18716;SDS011;9487;50.892;6.906;2023-03-14T08:54:52;1.60;;;0.90;;
18716;SDS011;9487;50.892;6.906;2023-03-14T08:57:18;1.57;;;0.70;;
18716;SDS011;9487;50.892;6.906;2023-03-14T08:59:46;1.60;;;0.60;;
18716;SDS011;9487;50.892;6.906;2023-03-14T09:02:13;2.53;;;0.57;;
18716;SDS011;9487;50.892;6.906;2023-03-14T09:04:41;1.67;;;0.67;;
18716;SDS011;9487;50.892;6.906;2023-03-14T09:07:08;3.93;;;0.90;;
18716;SDS011;9487;50.892;6.906;2023-03-14T09:09:35;2.00;;;0.77;;
18716;SDS011;9487;50.892;6.906;2023-03-14T09:12:03;0.60;;;0.60;;
18716;SDS011;9487;50.892;6.906;2023-03-14T09:14:30;1.47;;;0.70;;
18716;SDS011;9487;50.892;6.906;2023-03-14T09:16:58;1.60;;;0.60;;
18716;SDS011;9487;50.892;6.906;2023-03-14T09:19:24;1.03;;;0.60;;
18716;SDS011;9487;50.892;6.906;2023-03-14T09:21:53;0.90;;;0.50;;
18716;SDS011;9487;50.892;6.906;2023-03-14T09:24:20;0.97;;;0.30;;
18716;SDS011;9487;50.892;6.906;2023-03-14T09:26:48;1.97;;;0.60;;
18716;SDS011;9487;50.892;6.906;2023-03-14T09:29:14;1.77;;;0.70;;
18716;SDS011;9487;50.892;6.906;2023-03-14T09:31:41;2.70;;;0.70;;
18716;SDS011;9487;50.892;6.906;2023-03-14T09:34:08;1.33;;;0.60;;
18716;SDS011;9487;50.892;6.906;2023-03-14T09:36:35;0.50;;;0.40;;
18716;SDS011;9487;50.892;6.906;2023-03-14T09:39:04;0.80;;;0.50;;
18716;SDS011;9487;50.892;6.906;2023-03-14T09:41:33;3.07;;;0.77;;
18716;SDS011;9487;50.892;6.906;2023-03-14T09:44:02;3.27;;;0.73;;
18716;SDS011;9487;50.892;6.906;2023-03-14T09:46:31;1.13;;;0.73;;
18716;SDS011;9487;50.892;6.906;2023-03-14T09:49:02;2.43;;;0.87;;
18716;SDS011;9487;50.892;6.906;2023-03-14T09:51:35;1.30;;;0.80;;
18716;SDS011;9487;50.892;6.906;2023-03-14T09:54:02;2.83;;;1.00;;
18716;SDS011;9487;50.892;6.906;2023-03-14T09:56:40;1.03;;;0.83;;
18716;SDS011;9487;50.892;6.906;2023-03-14T09:59:08;2.00;;;0.97;;
18716;SDS011;9487;50.892;6.906;2023-03-14T10:01:39;1.53;;;0.97;;
18716;SDS011;9487;50.892;6.906;2023-03-14T10:04:06;1.47;;;1.20;;
18716;SDS011;9487;50.892;6.906;2023-03-14T10:06:39;1.63;;;1.53;;
18716;SDS011;9487;50.892;6.906;2023-03-14T10:09:09;2.30;;;1.63;;
18716;SDS011;9487;50.892;6.906;2023-03-14T10:11:43;2.33;;;1.60;;
18716;SDS011;9487;50.892;6.906;2023-03-14T10:14:10;2.03;;;1.50;;
18716;SDS011;9487;50.892;6.906;2023-03-14T10:16:40;2.27;;;1.60;;
18716;SDS011;9487;50.892;6.906;2023-03-14T10:19:10;1.67;;;1.27;;
18716;SDS011;9487;50.892;6.906;2023-03-14T10:21:38;2.83;;;1.40;;
18716;SDS011;9487;50.892;6.906;2023-03-14T10:24:09;2.60;;;1.80;;
18716;SDS011;9487;50.892;6.906;2023-03-14T10:26:43;2.60;;;1.43;;
18716;SDS011;9487;50.892;6.906;2023-03-14T10:29:13;1.53;;;1.30;;
18716;SDS011;9487;50.892;6.906;2023-03-14T10:31:48;1.33;;;1.17;;
18716;SDS011;9487;50.892;6.906;2023-03-14T10:34:21;1.70;;;1.60;;
18716;SDS011;9487;50.892;6.906;2023-03-14T10:36:53;3.07;;;1.40;;
18716;SDS011;9487;50.892;6.906;2023-03-14T10:39:30;1.87;;;1.67;;
18716;SDS011;9487;50.892;6.906;2023-03-14T10:42:10;2.47;;;1.80;;
18716;SDS011;9487;50.892;6.906;2023-03-14T10:44:41;2.63;;;1.83;;
18716;SDS011;9487;50.892;6.906;2023-03-14T10:47:12;4.53;;;3.40;;
18716;SDS011;9487;50.892;6.906;2023-03-14T10:49:42;4.07;;;3.67;;
18716;SDS011;9487;50.892;6.906;2023-03-14T10:52:13;3.93;;;2.23;;
18716;SDS011;9487;50.892;6.906;2023-03-14T10:54:48;3.40;;;2.30;;
18716;SDS011;9487;50.892;6.906;2023-03-14T10:57:15;4.73;;;2.03;;
18716;SDS011;9487;50.892;6.906;2023-03-14T10:59:45;2.33;;;1.80;;
18716;SDS011;9487;50.892;6.906;2023-03-14T11:02:21;3.23;;;1.50;;
18716;SDS011;9487;50.892;6.906;2023-03-14T11:05:10;1.93;;;1.40;;
18716;SDS011;9487;50.892;6.906;2023-03-14T11:07:45;2.37;;;1.57;;
18716;SDS011;9487;50.892;6.906;2023-03-14T11:10:17;3.93;;;1.83;;
18716;SDS011;9487;50.892;6.906;2023-03-14T11:12:52;1.80;;;1.70;;
18716;SDS011;9487;50.892;6.906;2023-03-14T11:15:28;3.23;;;1.80;;
18716;SDS011;9487;50.892;6.906;2023-03-14T11:18:03;2.70;;;1.70;;
18716;SDS011;9487;50.892;6.906;2023-03-14T11:20:50;2.40;;;1.47;;
18716;SDS011;9487;50.892;6.906;2023-03-14T11:23:20;3.23;;;1.67;;
18716;SDS011;9487;50.892;6.906;2023-03-14T11:25:51;1.27;;;1.00;;
18716;SDS011;9487;50.892;6.906;2023-03-14T11:28:26;2.70;;;1.50;;
18716;SDS011;9487;50.892;6.906;2023-03-14T11:31:03;2.73;;;1.60;;
18716;SDS011;9487;50.892;6.906;2023-03-14T11:33:37;2.63;;;1.70;;
18716;SDS011;9487;50.892;6.906;2023-03-14T11:36:06;2.53;;;1.70;;
18716;SDS011;9487;50.892;6.906;2023-03-14T11:38:35;2.60;;;1.67;;
18716;SDS011;9487;50.892;6.906;2023-03-14T11:41:08;2.80;;;2.00;;
18716;SDS011;9487;50.892;6.906;2023-03-14T11:43:38;2.73;;;1.63;;
18716;SDS011;9487;50.892;6.906;2023-03-14T11:46:08;1.87;;;1.40;;
18716;SDS011;9487;50.892;6.906;2023-03-14T11:48:40;3.07;;;2.37;;
18716;SDS011;9487;50.892;6.906;2023-03-14T11:51:13;1.37;;;0.73;;
18716;SDS011;9487;50.892;6.906;2023-03-14T11:53:48;1.90;;;0.70;;
18716;SDS011;9487;50.892;6.906;2023-03-14T11:56:24;1.03;;;0.80;;
18716;SDS011;9487;50.892;6.906;2023-03-14T11:58:57;1.30;;;0.90;;
18716;SDS011;9487;50.892;6.906;2023-03-14T12:01:27;2.57;;;0.77;;
18716;SDS011;9487;50.892;6.906;2023-03-14T12:04:02;2.30;;;1.20;;
18716;SDS011;9487;50.892;6.906;2023-03-14T12:06:37;2.33;;;1.10;;
18716;SDS011;9487;50.892;6.906;2023-03-14T12:11:43;2.87;;;1.53;;
18716;SDS011;9487;50.892;6.906;2023-03-14T12:14:20;3.80;;;1.50;;
18716;SDS011;9487;50.892;6.906;2023-03-14T12:16:52;2.80;;;1.60;;
18716;SDS011;9487;50.892;6.906;2023-03-14T12:19:32;2.07;;;1.57;;
18716;SDS011;9487;50.892;6.906;2023-03-14T12:22:18;4.47;;;1.97;;
18716;SDS011;9487;50.892;6.906;2023-03-14T12:24:53;1.60;;;1.50;;
18716;SDS011;9487;50.892;6.906;2023-03-14T12:27:47;3.97;;;1.83;;
18716;SDS011;9487;50.892;6.906;2023-03-14T12:30:30;3.63;;;2.07;;
18716;SDS011;9487;50.892;6.906;2023-03-14T12:33:10;3.40;;;1.57;;
18716;SDS011;9487;50.892;6.906;2023-03-14T12:36:00;2.10;;;1.70;;
18716;SDS011;9487;50.892;6.906;2023-03-14T12:38:46;4.43;;;1.73;;
18716;SDS011;9487;50.892;6.906;2023-03-14T12:41:22;1.73;;;1.10;;
18716;SDS011;9487;50.892;6.906;2023-03-14T12:43:53;4.07;;;1.40;;
18716;SDS011;9487;50.892;6.906;2023-03-14T12:46:21;3.80;;;1.30;;
18716;SDS011;9487;50.892;6.906;2023-03-14T12:48:49;2.60;;;1.40;;
18716;SDS011;9487;50.892;6.906;2023-03-14T12:51:20;2.90;;;1.30;;
18716;SDS011;9487;50.892;6.906;2023-03-14T12:54:06;2.17;;;1.20;;
18716;SDS011;9487;50.892;6.906;2023-03-14T12:56:51;2.90;;;1.30;;
18716;SDS011;9487;50.892;6.906;2023-03-14T12:59:30;2.60;;;1.60;;
18716;SDS011;9487;50.892;6.906;2023-03-14T13:02:00;3.37;;;1.23;;
18716;SDS011;9487;50.892;6.906;2023-03-14T13:04:37;4.07;;;1.43;;
18716;SDS011;9487;50.892;6.906;2023-03-14T13:07:11;2.30;;;1.53;;
18716;SDS011;9487;50.892;6.906;2023-03-14T13:12:29;2.10;;;1.50;;
18716;SDS011;9487;50.892;6.906;2023-03-14T13:15:02;4.10;;;1.57;;
18716;SDS011;9487;50.892;6.906;2023-03-14T13:17:40;4.20;;;1.40;;
18716;SDS011;9487;50.892;6.906;2023-03-14T13:20:10;3.60;;;1.13;;
18716;SDS011;9487;50.892;6.906;2023-03-14T13:22:45;1.60;;;1.20;;
18716;SDS011;9487;50.892;6.906;2023-03-14T13:25:13;2.63;;;1.20;;
18716;SDS011;9487;50.892;6.906;2023-03-14T13:27:41;3.40;;;1.33;;
18716;SDS011;9487;50.892;6.906;2023-03-14T13:30:17;3.20;;;1.30;;
18716;SDS011;9487;50.892;6.906;2023-03-14T13:32:48;5.07;;;1.20;;
18716;SDS011;9487;50.892;6.906;2023-03-14T13:35:20;2.10;;;1.20;;
18716;SDS011;9487;50.892;6.906;2023-03-14T13:37:57;2.10;;;1.33;;
18716;SDS011;9487;50.892;6.906;2023-03-14T13:40:29;3.63;;;1.30;;
18716;SDS011;9487;50.892;6.906;2023-03-14T13:43:02;5.47;;;1.40;;
18716;SDS011;9487;50.892;6.906;2023-03-14T13:45:33;3.87;;;1.27;;
18716;SDS011;9487;50.892;6.906;2023-03-14T13:48:11;5.33;;;1.20;;
18716;SDS011;9487;50.892;6.906;2023-03-14T13:50:43;3.93;;;1.30;;
18716;SDS011;9487;50.892;6.906;2023-03-14T13:53:11;3.57;;;0.97;;
18716;SDS011;9487;50.892;6.906;2023-03-14T13:55:38;6.00;;;1.27;;
18716;SDS011;9487;50.892;6.906;2023-03-14T13:58:10;10.47;;;1.87;;
18716;SDS011;9487;50.892;6.906;2023-03-14T14:00:46;4.33;;;1.87;;
18716;SDS011;9487;50.892;6.906;2023-03-14T14:03:22;6.67;;;1.27;;
18716;SDS011;9487;50.892;6.906;2023-03-14T14:05:49;5.97;;;1.73;;
18716;SDS011;9487;50.892;6.906;2023-03-14T14:08:16;8.33;;;2.00;;
18716;SDS011;9487;50.892;6.906;2023-03-14T14:10:43;7.47;;;1.67;;
18716;SDS011;9487;50.892;6.906;2023-03-14T14:13:14;7.00;;;1.87;;
18716;SDS011;9487;50.892;6.906;2023-03-14T14:15:44;11.47;;;2.70;;
18716;SDS011;9487;50.892;6.906;2023-03-14T14:18:15;14.10;;;2.57;;
18716;SDS011;9487;50.892;6.906;2023-03-14T14:20:45;10.70;;;3.13;;
18716;SDS011;9487;50.892;6.906;2023-03-14T14:23:14;9.33;;;2.23;;
18716;SDS011;9487;50.892;6.906;2023-03-14T14:25:43;16.43;;;3.17;;
18716;SDS011;9487;50.892;6.906;2023-03-14T14:28:17;16.80;;;2.70;;
18716;SDS011;9487;50.892;6.906;2023-03-14T14:30:59;11.93;;;2.83;;
18716;SDS011;9487;50.892;6.906;2023-03-14T14:33:30;15.97;;;2.80;;
18716;SDS011;9487;50.892;6.906;2023-03-14T14:36:11;9.90;;;2.10;;
18716;SDS011;9487;50.892;6.906;2023-03-14T14:38:42;16.23;;;2.70;;
18716;SDS011;9487;50.892;6.906;2023-03-14T14:41:14;14.40;;;3.37;;
18716;SDS011;9487;50.892;6.906;2023-03-14T14:43:41;11.13;;;2.47;;
18716;SDS011;9487;50.892;6.906;2023-03-14T14:46:13;12.77;;;2.83;;
18716;SDS011;9487;50.892;6.906;2023-03-14T14:48:44;8.73;;;2.70;;
18716;SDS011;9487;50.892;6.906;2023-03-14T14:51:22;11.20;;;2.80;;
18716;SDS011;9487;50.892;6.906;2023-03-14T14:53:59;9.17;;;2.63;;
18716;SDS011;9487;50.892;6.906;2023-03-14T14:56:34;11.50;;;2.80;;
18716;SDS011;9487;50.892;6.906;2023-03-14T14:59:02;7.13;;;1.70;;
18716;SDS011;9487;50.892;6.906;2023-03-14T15:01:34;11.03;;;3.10;;
18716;SDS011;9487;50.892;6.906;2023-03-14T15:04:04;13.07;;;3.10;;
18716;SDS011;9487;50.892;6.906;2023-03-14T15:06:37;8.90;;;2.83;;
18716;SDS011;9487;50.892;6.906;2023-03-14T15:09:04;9.70;;;2.33;;
18716;SDS011;9487;50.892;6.906;2023-03-14T15:11:32;11.83;;;3.03;;
18716;SDS011;9487;50.892;6.906;2023-03-14T15:13:59;12.40;;;2.30;;
18716;SDS011;9487;50.892;6.906;2023-03-14T15:16:27;13.83;;;2.87;;
18716;SDS011;9487;50.892;6.906;2023-03-14T15:18:57;11.03;;;3.00;;
18716;SDS011;9487;50.892;6.906;2023-03-14T15:21:26;10.73;;;2.63;;
18716;SDS011;9487;50.892;6.906;2023-03-14T15:23:53;16.50;;;3.10;;